Time;durP1;ratioP1;P1;durP2;ratioP2;P2;SDS_P1;SDS_P2;PMS_P1;PMS_P2;Temp;Humidity;BMP_temperature;BMP_pressure;BME280_temperature;BME280_humidity;BME280_pressure;Samples;Min_cycle;Max_cycle;Signal;HPM_P1;HPM_P2
2024/01/16 00:01:11;;;;;;;2.05;1.70;;;23.00;39.30;;;;;;6274006;27;81023;-57
2024/01/16 00:04:11;;;;;;;3.58;1.77;;;22.90;39.30;;;;;;6255707;27;80425;-58
2024/01/16 00:07:12;;;;;;;3.17;1.80;;;22.90;39.10;;;;;;6272499;27;81110;-59
2024/01/16 00:10:12;;;;;;;3.00;1.85;;;22.90;39.20;;;;;;6274812;27;80917;-64
2024/01/16 00:13:13;;;;;;;4.13;1.52;;;22.90;39.10;;;;;;6272699;27;81069;-64
2024/01/16 00:16:13;;;;;;;3.80;1.92;;;22.80;39.10;;;;;;6272810;27;80941;-64
2024/01/16 00:19:14;;;;;;;2.88;1.70;;;22.80;39.00;;;;;;6273973;27;80422;-63
2024/01/16 00:22:14;;;;;;;2.95;1.88;;;22.80;38.90;;;;;;6245387;27;82307;-61
2024/01/16 00:25:15;;;;;;;2.75;1.60;;;22.80;38.90;;;;;;6249862;27;80148;-62
2024/01/16 00:28:15;;;;;;;2.88;1.58;;;22.80;38.90;;;;;;6250252;27;84237;-56
2024/01/16 00:31:16;;;;;;;1.83;1.40;;;22.80;39.10;;;;;;6255156;27;80528;-56
2024/01/16 00:34:16;;;;;;;2.22;1.60;;;22.80;38.70;;;;;;6250101;27;80670;-56
2024/01/16 00:37:17;;;;;;;3.22;2.30;;;22.80;39.00;;;;;;6255902;27;80588;-57
2024/01/16 00:40:17;;;;;;;1.65;1.40;;;22.70;39.20;;;;;;6249888;27;80697;-57
2024/01/16 00:43:18;;;;;;;2.35;1.75;;;22.80;40.00;;;;;;6250835;27;80348;-55
2024/01/16 00:46:18;;;;;;;2.38;1.63;;;22.70;39.30;;;;;;6250241;27;80379;-57
2024/01/16 00:49:19;;;;;;;2.55;1.52;;;22.70;39.20;;;;;;6252989;27;82474;-56
2024/01/16 00:52:20;;;;;;;1.85;1.55;;;22.70;39.30;;;;;;6253075;27;80428;-58
2024/01/16 00:55:20;;;;;;;2.60;1.60;;;22.70;39.20;;;;;;6255435;27;81119;-57
2024/01/16 00:58:21;;;;;;;2.38;1.80;;;22.70;39.20;;;;;;6255049;27;81214;-57
2024/01/16 01:01:21;;;;;;;3.35;1.80;;;22.60;39.50;;;;;;6257805;27;83502;-58
2024/01/16 01:04:22;;;;;;;3.92;1.80;;;22.70;39.60;;;;;;6279650;27;80337;-57
2024/01/16 01:07:23;;;;;;;2.67;1.83;;;22.70;39.60;;;;;;6278845;27;80356;-59
2024/01/16 01:10:23;;;;;;;3.25;1.80;;;22.70;39.60;;;;;;6277794;27;80266;-58
2024/01/16 01:13:25;;;;;;;3.42;1.70;;;22.60;39.60;;;;;;6265050;27;81144;-57
2024/01/16 01:16:25;;;;;;;2.50;1.80;;;22.60;39.40;;;;;;6258975;27;80450;-57
2024/01/16 01:19:26;;;;;;;2.75;1.70;;;22.60;39.50;;;;;;6269831;27;81224;-59
2024/01/16 01:22:26;;;;;;;2.65;1.70;;;22.60;39.30;;;;;;6270910;27;80371;-59
2024/01/16 01:25:27;;;;;;;2.80;1.83;;;22.60;39.00;;;;;;6258855;27;80920;-64
2024/01/16 01:28:27;;;;;;;3.60;2.28;;;22.60;39.10;;;;;;6270063;27;84235;-63
2024/01/16 01:31:28;;;;;;;2.17;1.83;;;22.60;39.10;;;;;;6268703;27;82781;-63
2024/01/16 01:34:28;;;;;;;3.08;1.77;;;22.60;39.20;;;;;;6279477;27;80954;-64
2024/01/16 01:37:29;;;;;;;3.15;1.45;;;22.60;39.30;;;;;;6277031;27;80103;-63
2024/01/16 01:40:29;;;;;;;3.83;2.00;;;22.60;39.40;;;;;;6277533;27;80512;-63
2024/01/16 01:43:30;;;;;;;2.40;1.50;;;22.60;39.40;;;;;;6276915;27;80096;-51
2024/01/16 01:46:30;;;;;;;2.03;1.52;;;22.60;39.30;;;;;;6277077;27;80516;-52
2024/01/16 01:49:31;;;;;;;2.00;1.70;;;22.60;39.40;;;;;;6277449;27;81588;-55
2024/01/16 01:52:31;;;;;;;2.65;1.80;;;22.50;39.40;;;;;;6276958;27;80352;-50
2024/01/16 01:55:32;;;;;;;2.65;1.65;;;22.60;39.40;;;;;;6278748;27;80495;-49
2024/01/16 01:58:32;;;;;;;3.00;1.70;;;22.50;39.50;;;;;;6256310;27;81121;-51
2024/01/16 02:01:33;;;;;;;2.20;1.50;;;22.50;39.40;;;;;;6265116;27;81378;-59
2024/01/16 02:04:34;;;;;;;3.10;1.80;;;22.60;39.40;;;;;;6257061;27;80442;-59
2024/01/16 02:07:34;;;;;;;2.38;1.73;;;22.50;39.40;;;;;;6259015;27;81348;-59
2024/01/16 02:10:35;;;;;;;2.13;1.50;;;22.50;39.30;;;;;;6259060;27;80465;-57
2024/01/16 02:13:35;;;;;;;1.80;1.35;;;22.50;39.40;;;;;;6257238;27;80987;-58
2024/01/16 02:16:37;;;;;;;2.65;1.60;;;22.50;39.30;;;;;;6261959;27;80817;-56
2024/01/16 02:19:37;;;;;;;2.40;1.45;;;22.50;39.50;;;;;;6265120;27;80491;-58
2024/01/16 02:22:38;;;;;;;3.30;1.90;;;22.50;39.40;;;;;;6276612;27;80319;-53
2024/01/16 02:25:38;;;;;;;1.75;1.42;;;22.50;39.50;;;;;;6276185;27;80342;-57
2024/01/16 02:28:39;;;;;;;2.25;1.80;;;22.50;39.50;;;;;;6274861;27;80611;-58
2024/01/16 02:31:39;;;;;;;3.72;1.92;;;22.50;39.60;;;;;;6276783;27;82280;-56
2024/01/16 02:34:39;;;;;;;2.72;1.70;;;22.50;39.20;;;;;;6266626;27;81750;-56
2024/01/16 02:37:40;;;;;;;2.38;1.67;;;22.50;39.60;;;;;;6271799;27;80271;-58
2024/01/16 02:40:40;;;;;;;1.88;1.70;;;22.50;39.50;;;;;;6270470;27;81495;-58
2024/01/16 02:43:41;;;;;;;3.53;1.75;;;22.50;39.40;;;;;;6247054;27;80501;-58
2024/01/16 02:46:41;;;;;;;2.42;1.63;;;22.50;39.50;;;;;;6255430;27;84964;-58
2024/01/16 02:49:42;;;;;;;3.40;2.15;;;22.50;39.60;;;;;;6251657;27;80494;-57
2024/01/16 02:52:42;;;;;;;2.47;1.40;;;22.50;39.60;;;;;;6257046;27;82159;-53
2024/01/16 02:55:43;;;;;;;2.22;1.90;;;22.50;40.40;;;;;;6252058;27;80368;-51
2024/01/16 02:58:43;;;;;;;2.95;1.70;;;22.50;40.60;;;;;;6252765;27;82062;-50
2024/01/16 03:01:44;;;;;;;1.50;1.33;;;22.50;40.50;;;;;;6263585;27;80657;-48
2024/01/16 03:04:44;;;;;;;2.65;1.65;;;22.50;40.90;;;;;;6273875;27;80880;-52
2024/01/16 03:07:45;;;;;;;1.95;1.55;;;22.50;40.40;;;;;;6276509;27;80553;-48
2024/01/16 03:10:45;;;;;;;2.35;1.70;;;22.50;40.30;;;;;;6275176;27;87723;-51
2024/01/16 03:13:46;;;;;;;5.50;1.75;;;22.50;40.30;;;;;;6276705;27;81633;-50
2024/01/16 03:16:46;;;;;;;2.22;1.77;;;22.50;40.30;;;;;;6269053;27;81013;-48
2024/01/16 03:19:47;;;;;;;3.13;1.60;;;22.40;40.10;;;;;;6261808;27;83448;-49
2024/01/16 03:22:47;;;;;;;2.45;1.83;;;22.50;40.20;;;;;;6262258;27;81711;-51
2024/01/16 03:25:48;;;;;;;3.80;1.50;;;22.50;40.10;;;;;;6255701;27;80396;-47
2024/01/16 03:28:49;;;;;;;1.83;1.52;;;22.50;40.10;;;;;;6270319;27;80497;-51
2024/01/16 03:31:49;;;;;;;2.25;1.42;;;22.50;40.20;;;;;;6261833;27;80521;-56
2024/01/16 03:34:49;;;;;;;2.70;1.60;;;22.50;40.30;;;;;;6260098;27;80338;-55
2024/01/16 03:37:50;;;;;;;2.35;1.20;;;22.50;41.80;;;;;;6264038;27;80921;-57
2024/01/16 03:40:51;;;;;;;1.60;1.20;;;22.50;42.40;;;;;;6277117;27;81094;-57
2024/01/16 03:43:53;;;;;;;2.53;1.40;;;22.50;41.90;;;;;;6253094;27;80391;-58
2024/01/16 03:46:54;;;;;;;1.20;1.00;;;22.50;42.80;;;;;;6272459;27;81753;-56
2024/01/16 03:49:55;;;;;;;1.85;1.48;;;22.50;41.40;;;;;;6270961;27;80283;-58
2024/01/16 03:52:55;;;;;;;2.58;1.40;;;22.40;41.50;;;;;;6262681;27;81078;-57
2024/01/16 03:55:56;;;;;;;1.80;1.20;;;22.50;41.50;;;;;;6254257;27;81756;-58
2024/01/16 03:58:56;;;;;;;2.63;1.30;;;22.50;42.10;;;;;;6249844;27;80763;-58
2024/01/16 04:01:57;;;;;;;1.50;1.30;;;22.50;41.50;;;;;;6261779;27;80706;-59
2024/01/16 04:04:57;;;;;;;1.10;0.90;;;22.50;42.10;;;;;;6254219;27;82349;-59
2024/01/16 04:07:58;;;;;;;1.50;1.17;;;22.50;41.70;;;;;;6273562;27;80202;-59
2024/01/16 04:10:59;;;;;;;1.35;1.10;;;22.50;41.80;;;;;;6261718;27;80996;-58
2024/01/16 04:13:59;;;;;;;1.67;1.00;;;22.50;41.60;;;;;;6259934;27;80936;-56
2024/01/16 04:17:00;;;;;;;1.10;1.00;;;22.50;41.30;;;;;;6265661;27;80325;-58
2024/01/16 04:20:00;;;;;;;1.73;1.25;;;22.50;40.90;;;;;;6268864;27;80493;-56
2024/01/16 04:23:01;;;;;;;1.25;1.05;;;22.50;40.30;;;;;;6251270;27;81538;-60
2024/01/16 04:26:01;;;;;;;1.45;1.02;;;22.50;39.90;;;;;;6253922;27;80575;-59
2024/01/16 04:29:02;;;;;;;1.30;1.00;;;22.60;40.20;;;;;;6254410;27;80220;-58
2024/01/16 04:32:02;;;;;;;1.88;1.33;;;22.60;40.00;;;;;;6262475;27;80787;-59
2024/01/16 04:35:03;;;;;;;1.83;1.27;;;22.70;40.30;;;;;;6260706;27;80119;-60
2024/01/16 04:38:04;;;;;;;1.17;0.90;;;22.70;40.40;;;;;;6256046;27;82187;-59
2024/01/16 04:41:04;;;;;;;1.42;1.10;;;22.70;40.70;;;;;;6253687;27;80281;-60
2024/01/16 04:44:05;;;;;;;1.75;1.10;;;22.80;40.60;;;;;;6255159;27;80804;-62
2024/01/16 04:47:05;;;;;;;1.10;1.00;;;22.80;40.80;;;;;;6253129;27;80315;-59
2024/01/16 04:50:06;;;;;;;1.50;1.20;;;22.80;40.80;;;;;;6263099;27;81007;-57
2024/01/16 04:53:06;;;;;;;1.27;1.15;;;22.80;40.70;;;;;;6259753;27;82530;-60
2024/01/16 04:56:07;;;;;;;1.00;0.85;;;22.90;40.00;;;;;;6274665;27;81193;-59
2024/01/16 04:59:08;;;;;;;6.15;0.98;;;22.90;40.00;;;;;;6276233;27;80384;-59
2024/01/16 05:02:08;;;;;;;1.30;1.00;;;22.90;40.40;;;;;;6271568;27;80790;-64
2024/01/16 05:05:09;;;;;;;1.30;1.10;;;22.90;40.30;;;;;;6264286;27;83824;-62
2024/01/16 05:08:09;;;;;;;3.63;1.30;;;23.00;40.20;;;;;;6257680;27;81688;-62
2024/01/16 05:11:10;;;;;;;2.65;1.15;;;23.00;39.80;;;;;;6265806;27;85910;-62
2024/01/16 05:14:10;;;;;;;1.95;1.10;;;23.00;39.80;;;;;;6266174;27;80605;-61
2024/01/16 05:17:11;;;;;;;1.55;1.08;;;23.10;39.90;;;;;;6261701;27;81159;-60
2024/01/16 05:20:12;;;;;;;1.52;1.13;;;23.10;40.60;;;;;;6269148;27;80332;-61
2024/01/16 05:23:12;;;;;;;5.10;1.23;;;23.10;41.80;;;;;;6252895;27;80584;-59
2024/01/16 05:26:13;;;;;;;1.50;1.08;;;23.20;41.50;;;;;;6266366;27;80136;-64
2024/01/16 05:29:14;;;;;;;6.03;1.27;;;23.20;42.00;;;;;;6259564;27;80697;-62
2024/01/16 05:32:14;;;;;;;3.20;1.00;;;23.20;42.40;;;;;;6274263;27;80294;-56
2024/01/16 05:35:15;;;;;;;2.20;1.23;;;23.20;42.10;;;;;;6270697;27;80561;-58
2024/01/16 05:38:15;;;;;;;1.80;1.20;;;23.20;41.80;;;;;;6269202;27;80760;-60
2024/01/16 05:41:17;;;;;;;6.22;1.10;;;23.20;42.10;;;;;;6271876;27;81305;-65
2024/01/16 05:44:17;;;;;;;5.40;1.38;;;23.30;42.70;;;;;;6263253;27;80917;-61
2024/01/16 05:47:17;;;;;;;3.80;1.35;;;23.30;42.70;;;;;;6274247;27;80503;-63
2024/01/16 05:50:18;;;;;;;17.17;1.30;;;23.20;42.40;;;;;;6272483;27;80149;-63
2024/01/16 05:53:19;;;;;;;1.70;1.05;;;23.30;42.40;;;;;;6272246;27;80692;-63
2024/01/16 05:56:19;;;;;;;4.30;1.50;;;23.20;42.20;;;;;;6261755;27;81337;-63
2024/01/16 05:59:20;;;;;;;1.48;1.00;;;23.20;42.10;;;;;;6272905;27;80627;-62
2024/01/16 06:02:20;;;;;;;1.80;1.13;;;23.20;42.00;;;;;;6266370;27;86352;-63
2024/01/16 06:05:21;;;;;;;5.38;1.10;;;23.20;42.00;;;;;;6251542;27;81330;-63
2024/01/16 06:08:21;;;;;;;1.52;1.15;;;23.20;42.00;;;;;;6251466;27;80558;-63
2024/01/16 06:11:22;;;;;;;2.25;1.25;;;23.10;41.90;;;;;;6259731;27;80395;-62
2024/01/16 06:14:22;;;;;;;1.10;1.00;;;23.10;41.80;;;;;;6252483;27;81401;-63
2024/01/16 06:17:23;;;;;;;3.70;0.98;;;23.10;41.90;;;;;;6246359;27;81651;-66
2024/01/16 06:20:24;;;;;;;3.03;1.33;;;23.00;41.80;;;;;;6243834;27;80842;-63
2024/01/16 06:23:25;;;;;;;1.23;1.00;;;23.00;42.50;;;;;;6260205;27;81764;-64
2024/01/16 06:26:25;;;;;;;1.65;0.93;;;22.90;41.90;;;;;;6267141;27;81396;-63
2024/01/16 06:29:26;;;;;;;1.67;1.30;;;22.90;41.70;;;;;;6272539;27;80207;-64
2024/01/16 06:32:27;;;;;;;3.25;1.05;;;22.90;41.80;;;;;;6269707;27;80356;-64
2024/01/16 06:35:27;;;;;;;5.85;1.23;;;22.90;41.70;;;;;;6264496;27;80374;-63
2024/01/16 06:38:27;;;;;;;1.45;1.30;;;22.90;41.60;;;;;;6245584;27;80589;-64
2024/01/16 06:41:28;;;;;;;1.60;1.00;;;22.80;41.40;;;;;;6231095;28;83734;-64
2024/01/16 06:44:28;;;;;;;1.95;0.95;;;22.80;41.10;;;;;;6245698;27;82894;-64
2024/01/16 06:47:29;;;;;;;2.22;1.50;;;22.80;41.10;;;;;;6237212;28;81384;-64
2024/01/16 06:50:30;;;;;;;2.92;1.10;;;22.70;40.80;;;;;;6246152;27;81015;-64
2024/01/16 06:53:30;;;;;;;1.95;1.20;;;22.70;40.70;;;;;;6245550;27;80646;-64
2024/01/16 06:56:31;;;;;;;3.70;1.27;;;22.70;40.60;;;;;;6247169;27;81473;-63
2024/01/16 06:59:31;;;;;;;3.03;1.50;;;22.70;40.90;;;;;;6244953;28;80401;-63
2024/01/16 07:02:32;;;;;;;3.05;1.70;;;22.70;40.80;;;;;;6242644;27;83048;-62
2024/01/16 07:05:32;;;;;;;2.13;1.38;;;22.70;40.30;;;;;;6245195;27;80615;-63
2024/01/16 07:08:33;;;;;;;2.63;1.17;;;22.70;40.60;;;;;;6244044;27;80898;-63
2024/01/16 07:11:33;;;;;;;1.92;1.38;;;22.60;40.70;;;;;;6244368;27;80331;-65
2024/01/16 07:14:34;;;;;;;6.07;1.92;;;22.60;40.60;;;;;;6246932;28;81654;-50
2024/01/16 07:17:34;;;;;;;3.38;1.60;;;22.60;40.50;;;;;;6242342;28;83783;-51
2024/01/16 07:20:35;;;;;;;2.42;1.40;;;22.60;40.80;;;;;;6247124;27;81297;-53
2024/01/16 07:23:35;;;;;;;3.35;1.60;;;22.60;40.80;;;;;;6247841;28;80356;-53
2024/01/16 07:26:36;;;;;;;2.90;1.38;;;22.60;40.80;;;;;;6247430;28;81190;-50
2024/01/16 07:29:36;;;;;;;1.70;1.42;;;22.60;40.90;;;;;;6243482;27;84257;-54
2024/01/16 07:32:36;;;;;;;2.97;1.83;;;22.60;40.80;;;;;;6245281;27;81385;-58
2024/01/16 07:35:40;;;;;;;3.15;1.70;;;22.50;40.60;;;;;;6230322;27;81507;-58
2024/01/16 07:38:41;;;;;;;2.67;1.55;;;22.50;40.40;;;;;;6242113;27;85243;-59
2024/01/16 07:41:41;;;;;;;4.43;1.90;;;22.50;40.30;;;;;;6229956;27;81423;-58
2024/01/16 07:44:43;;;;;;;3.47;1.70;;;22.50;40.10;;;;;;6226749;27;83217;-58
2024/01/16 07:47:43;;;;;;;2.28;1.42;;;22.50;40.10;;;;;;6246349;27;81536;-55
2024/01/16 07:50:45;;;;;;;3.13;2.10;;;22.50;40.20;;;;;;6244567;27;83941;-54
2024/01/16 07:53:46;;;;;;;3.55;2.00;;;22.50;40.30;;;;;;6248178;27;81299;-56
2024/01/16 07:56:46;;;;;;;3.47;1.75;;;22.40;40.40;;;;;;6251976;27;81088;-59
2024/01/16 07:59:47;;;;;;;3.03;1.65;;;22.50;40.60;;;;;;6241454;27;81978;-58
2024/01/16 08:02:47;;;;;;;2.63;1.50;;;22.50;40.20;;;;;;6241344;27;81485;-56
2024/01/16 08:05:48;;;;;;;3.28;1.70;;;22.50;40.40;;;;;;6247391;27;81833;-58
2024/01/16 08:08:48;;;;;;;2.15;1.40;;;22.50;40.30;;;;;;6245978;27;81410;-58
2024/01/16 08:11:49;;;;;;;3.03;2.00;;;22.50;40.50;;;;;;6242014;27;83202;-59
2024/01/16 08:14:49;;;;;;;2.42;1.60;;;22.50;40.30;;;;;;6240629;27;81195;-58
2024/01/16 08:17:50;;;;;;;3.90;2.78;;;22.50;40.40;;;;;;6243670;27;81986;-58
2024/01/16 08:20:50;;;;;;;2.65;1.92;;;22.50;40.80;;;;;;6252756;27;82012;-53
2024/01/16 08:23:51;;;;;;;6.03;2.17;;;22.50;40.40;;;;;;6244398;27;81728;-60
2024/01/16 08:26:51;;;;;;;5.72;1.63;;;22.60;40.70;;;;;;6249109;27;81474;-56
2024/01/16 08:29:53;;;;;;;3.60;1.80;;;22.60;40.40;;;;;;6235284;27;83930;-55
2024/01/16 08:32:53;;;;;;;4.47;2.40;;;22.60;40.20;;;;;;6240615;27;81855;-55
2024/01/16 08:35:54;;;;;;;5.18;2.30;;;22.60;40.30;;;;;;6248436;27;81471;-54
2024/01/16 08:38:55;;;;;;;2.53;1.95;;;22.60;40.20;;;;;;6243163;27;85309;-57
2024/01/16 08:41:57;;;;;;;2.80;1.63;;;22.70;40.60;;;;;;6235619;27;82819;-56
2024/01/16 08:44:58;;;;;;;3.58;1.70;;;22.70;40.20;;;;;;6251813;27;81555;-64
2024/01/16 08:47:59;;;;;;;3.92;1.90;;;22.70;40.20;;;;;;6253605;27;81657;-63
2024/01/16 08:51:00;;;;;;;2.50;2.00;;;22.80;40.10;;;;;;6253127;27;83433;-62
2024/01/16 08:54:00;;;;;;;3.53;2.05;;;22.90;40.20;;;;;;6248487;27;82253;-63
2024/01/16 08:57:01;;;;;;;3.33;1.90;;;23.00;40.20;;;;;;6230224;27;82262;-62
2024/01/16 09:00:03;;;;;;;3.10;2.17;;;23.10;40.30;;;;;;6232793;27;83353;-63
2024/01/16 09:03:03;;;;;;;2.60;1.88;;;23.20;40.20;;;;;;6243904;27;81586;-63
2024/01/16 09:06:04;;;;;;;3.15;1.77;;;23.30;40.90;;;;;;6248061;27;81051;-63
2024/01/16 09:09:04;;;;;;;3.80;1.80;;;23.30;40.30;;;;;;6256719;27;81012;-56
2024/01/16 09:12:05;;;;;;;4.18;1.98;;;23.30;40.60;;;;;;6248278;27;80975;-61
2024/01/16 09:15:05;;;;;;;2.30;1.70;;;23.40;40.30;;;;;;6256839;27;81092;-61
2024/01/16 09:18:06;;;;;;;4.30;2.15;;;23.50;40.30;;;;;;6254251;27;81705;-61
2024/01/16 09:21:06;;;;;;;3.88;2.00;;;23.50;40.20;;;;;;6257530;27;80443;-60
2024/01/16 09:24:07;;;;;;;7.13;2.35;;;23.40;40.10;;;;;;6256290;27;81936;-52
2024/01/16 09:27:09;;;;;;;4.38;2.13;;;23.50;40.20;;;;;;6237395;27;81773;-62
2024/01/16 09:30:10;;;;;;;3.50;1.92;;;23.50;40.10;;;;;;6252697;27;80986;-66
2024/01/16 09:33:11;;;;;;;3.15;2.03;;;23.60;40.30;;;;;;6244527;27;85262;-65
2024/01/16 09:36:11;;;;;;;3.08;2.00;;;23.70;40.20;;;;;;6241765;27;82482;-62
2024/01/16 09:39:13;;;;;;;3.60;2.00;;;23.70;40.10;;;;;;6247888;27;81217;-63
2024/01/16 09:42:14;;;;;;;3.67;2.00;;;23.70;40.00;;;;;;6241358;27;81397;-61
2024/01/16 09:45:15;;;;;;;5.28;2.40;;;23.80;40.00;;;;;;6252439;27;81534;-61
2024/01/16 09:48:15;;;;;;;4.32;2.20;;;24.00;40.40;;;;;;6267674;27;80372;-65
2024/01/16 09:51:17;;;;;;;4.22;2.35;;;24.10;39.80;;;;;;6260536;27;80708;-64
2024/01/16 09:54:17;;;;;;;3.50;2.17;;;24.20;40.50;;;;;;6262477;27;80417;-61
2024/01/16 09:57:18;;;;;;;3.97;2.10;;;24.30;40.10;;;;;;6257827;27;80684;-64
2024/01/16 10:00:18;;;;;;;3.47;1.90;;;24.30;39.90;;;;;;6266872;27;80439;-68
2024/01/16 10:03:19;;;;;;;3.63;2.42;;;24.30;39.90;;;;;;6262863;27;80435;-66
2024/01/16 10:06:19;;;;;;;4.65;2.17;;;24.30;38.60;;;;;;6263492;27;80547;-65
2024/01/16 10:09:20;;;;;;;3.45;2.30;;;24.00;36.20;;;;;;6251648;27;80969;-67
2024/01/16 10:12:20;;;;;;;3.13;2.30;;;23.80;35.30;;;;;;6261023;27;81463;-64
2024/01/16 10:15:21;;;;;;;4.20;2.25;;;23.60;34.50;;;;;;6275380;27;83024;-74
2024/01/16 10:18:22;;;;;;;4.07;2.40;;;23.40;34.80;;;;;;6274966;27;80296;-58
2024/01/16 10:21:22;;;;;;;5.55;2.25;;;23.20;33.90;;;;;;6259628;27;80402;-58
2024/01/16 10:24:23;;;;;;;3.55;1.80;;;23.00;33.90;;;;;;6267048;27;80631;-55
2024/01/16 10:27:26;;;;;;;4.68;2.55;;;22.80;33.50;;;;;;6276062;27;80538;-57
2024/01/16 10:30:27;;;;;;;3.90;2.20;;;22.70;33.20;;;;;;6276614;27;80595;-59
2024/01/16 10:33:27;;;;;;;5.88;2.42;;;22.50;33.00;;;;;;6248268;27;80576;-56
2024/01/16 10:36:28;;;;;;;3.80;1.75;;;22.40;32.80;;;;;;6264871;27;80365;-65
2024/01/16 10:39:28;;;;;;;6.88;2.33;;;22.30;32.90;;;;;;6269545;27;80542;-65
2024/01/16 10:42:29;;;;;;;5.68;2.00;;;22.10;32.80;;;;;;6266021;27;80577;-66
2024/01/16 10:45:29;;;;;;;2.97;1.85;;;22.10;32.80;;;;;;6269811;27;80520;-65
2024/01/16 10:48:30;;;;;;;5.72;1.83;;;22.00;33.10;;;;;;6270723;27;80779;-66
2024/01/16 10:51:30;;;;;;;5.30;2.10;;;22.00;33.00;;;;;;6266763;27;80403;-64
2024/01/16 10:54:31;;;;;;;5.05;2.15;;;21.90;33.00;;;;;;6268296;27;80656;-65
2024/01/16 10:57:31;;;;;;;4.15;2.30;;;21.80;33.10;;;;;;6269974;27;80901;-65
2024/01/16 11:00:32;;;;;;;7.22;2.42;;;21.80;33.00;;;;;;6257010;27;84053;-66
2024/01/16 11:03:32;;;;;;;4.90;2.78;;;21.70;33.10;;;;;;6268491;27;80454;-64
2024/01/16 11:06:33;;;;;;;6.80;3.03;;;21.70;33.20;;;;;;6269358;27;80626;-64
2024/01/16 11:09:34;;;;;;;5.47;2.70;;;21.60;33.20;;;;;;6265941;27;80341;-64
2024/01/16 11:12:35;;;;;;;5.18;2.40;;;21.60;33.20;;;;;;6252989;27;81840;-60
2024/01/16 11:15:35;;;;;;;6.43;2.47;;;21.50;33.30;;;;;;6269778;27;80322;-60
2024/01/16 11:18:36;;;;;;;5.72;2.70;;;21.60;33.20;;;;;;6271881;27;81000;-59
2024/01/16 11:21:36;;;;;;;5.78;2.90;;;21.50;33.30;;;;;;6268062;27;81764;-60
2024/01/16 11:24:37;;;;;;;3.70;2.53;;;21.40;33.20;;;;;;6269827;27;80561;-60
2024/01/16 11:27:38;;;;;;;5.78;2.65;;;21.30;33.00;;;;;;6260412;27;80422;-60
2024/01/16 11:30:38;;;;;;;5.38;3.00;;;21.30;32.90;;;;;;6258332;27;81477;-65
2024/01/16 11:33:39;;;;;;;3.50;2.15;;;21.10;32.80;;;;;;6269266;27;80877;-64
2024/01/16 11:36:39;;;;;;;5.20;2.92;;;21.20;32.80;;;;;;6262951;27;80618;-65
2024/01/16 11:39:42;;;;;;;4.28;2.50;;;21.10;32.60;;;;;;6264201;27;81745;-66
2024/01/16 11:42:44;;;;;;;4.20;2.20;;;21.20;32.30;;;;;;6264114;27;80652;-65
2024/01/16 11:45:44;;;;;;;4.88;2.50;;;21.10;32.10;;;;;;6262341;27;81120;-64
2024/01/16 11:48:44;;;;;;;3.97;2.20;;;21.10;32.00;;;;;;6272764;27;81329;-54
2024/01/16 11:51:45;;;;;;;4.38;2.22;;;21.10;32.00;;;;;;6263374;27;83864;-60
2024/01/16 11:54:46;;;;;;;4.20;2.53;;;21.10;31.80;;;;;;6273704;27;81641;-59
2024/01/16 11:57:47;;;;;;;5.07;2.20;;;21.10;31.70;;;;;;6273153;27;80818;-58
2024/01/16 12:00:47;;;;;;;6.75;2.13;;;21.10;31.60;;;;;;6271452;27;80527;-58
2024/01/16 12:03:48;;;;;;;5.53;2.33;;;21.00;32.00;;;;;;6247915;27;81839;-59
2024/01/16 12:06:48;;;;;;;3.60;2.47;;;21.00;31.60;;;;;;6251327;27;81578;-58
2024/01/16 12:09:48;;;;;;;4.10;2.20;;;21.00;31.40;;;;;;6249118;27;82499;-59
2024/01/16 12:12:49;;;;;;;3.40;2.20;;;21.00;31.70;;;;;;6244566;27;81696;-59
2024/01/16 12:15:49;;;;;;;3.08;2.28;;;20.90;31.90;;;;;;6249476;27;81689;-58
2024/01/16 12:18:50;;;;;;;7.18;2.88;;;20.80;32.40;;;;;;6244113;27;82008;-57
2024/01/16 12:21:50;;;;;;;5.90;2.90;;;20.90;32.80;;;;;;6250088;27;81777;-59
2024/01/16 12:24:51;;;;;;;7.00;3.58;;;21.00;32.90;;;;;;6251008;27;81827;-57
2024/01/16 12:27:51;;;;;;;6.18;2.80;;;21.00;32.90;;;;;;6251712;27;81587;-57
2024/01/16 12:30:52;;;;;;;5.97;3.15;;;20.90;33.00;;;;;;6248340;27;83182;-59
2024/01/16 12:33:52;;;;;;;8.00;3.72;;;20.90;32.90;;;;;;6241865;27;81763;-54
2024/01/16 12:36:53;;;;;;;6.72;3.17;;;20.90;33.80;;;;;;6248404;27;82123;-56
2024/01/16 12:39:53;;;;;;;7.05;2.83;;;20.80;33.20;;;;;;6235608;27;81299;-56
2024/01/16 12:42:54;;;;;;;7.35;2.90;;;20.80;33.30;;;;;;6243173;27;81317;-58
2024/01/16 12:45:55;;;;;;;6.40;3.10;;;20.80;33.20;;;;;;6228400;27;82398;-59
2024/01/16 12:48:55;;;;;;;6.25;3.10;;;20.80;33.40;;;;;;6250961;27;81398;-57
2024/01/16 12:51:56;;;;;;;7.32;2.92;;;20.80;33.40;;;;;;6247063;27;81673;-59
2024/01/16 12:54:56;;;;;;;5.15;2.95;;;20.70;33.30;;;;;;6249148;27;81811;-56
2024/01/16 12:57:57;;;;;;;4.85;3.03;;;20.70;33.60;;;;;;6247495;27;81895;-58
2024/01/16 13:00:57;;;;;;;4.38;2.50;;;20.70;34.00;;;;;;6247768;27;81797;-60
2024/01/16 13:03:59;;;;;;;4.18;2.67;;;20.70;34.20;;;;;;6278951;27;81546;-55
2024/01/16 13:07:00;;;;;;;8.20;3.33;;;20.60;34.40;;;;;;6265268;27;80868;-57
2024/01/16 13:10:00;;;;;;;3.80;2.00;;;20.60;34.80;;;;;;6267346;27;84065;-58
2024/01/16 13:13:01;;;;;;;4.00;2.10;;;20.80;34.90;;;;;;6268953;27;83810;-59
2024/01/16 13:16:01;;;;;;;4.82;2.40;;;20.80;35.00;;;;;;6269579;27;80561;-58
2024/01/16 13:19:04;;;;;;;3.92;2.08;;;20.90;35.10;;;;;;6272531;27;82213;-58
2024/01/16 13:22:04;;;;;;;3.30;1.90;;;21.00;35.10;;;;;;6277656;27;80591;-58
2024/01/16 13:25:05;;;;;;;3.53;2.20;;;21.00;35.20;;;;;;6278405;27;80948;-58
2024/01/16 13:28:07;;;;;;;3.20;2.00;;;21.10;35.10;;;;;;6267751;27;82314;-57
2024/01/16 13:31:08;;;;;;;4.63;2.13;;;21.30;34.90;;;;;;6270197;27;80279;-57
2024/01/16 13:34:08;;;;;;;3.72;2.17;;;21.50;34.60;;;;;;6267753;27;80882;-58
2024/01/16 13:37:09;;;;;;;3.15;1.85;;;21.70;34.40;;;;;;6251554;27;80460;-59
2024/01/16 13:40:15;;;;;;;3.42;1.92;;;21.80;34.20;;;;;;6237972;27;81157;-57
2024/01/16 13:43:15;;;;;;;4.75;2.20;;;21.90;34.20;;;;;;6248242;27;84567;-55
2024/01/16 13:46:17;;;;;;;3.97;2.10;;;21.80;34.30;;;;;;6248368;27;80895;-54
2024/01/16 13:49:18;;;;;;;4.88;2.15;;;21.80;34.40;;;;;;6250329;27;80902;-56
2024/01/16 13:52:18;;;;;;;3.17;1.77;;;21.70;34.40;;;;;;6233585;28;83187;-54
2024/01/16 13:55:19;;;;;;;3.40;1.80;;;21.60;34.50;;;;;;6229241;27;80767;-55
2024/01/16 13:58:19;;;;;;;3.05;1.77;;;21.60;34.60;;;;;;6238190;27;81970;-65
2024/01/16 14:01:21;;;;;;;3.25;1.98;;;21.70;34.60;;;;;;6231923;27;81032;-65
2024/01/16 14:04:22;;;;;;;4.13;1.95;;;21.70;34.80;;;;;;6227936;27;80672;-65
2024/01/16 14:07:22;;;;;;;5.63;2.33;;;21.70;35.00;;;;;;6228057;27;80816;-66
2024/01/16 14:10:24;;;;;;;3.00;1.70;;;21.70;34.70;;;;;;6231052;27;81066;-67
2024/01/16 14:13:25;;;;;;;3.83;2.03;;;21.80;35.00;;;;;;6227479;27;81008;-67
2024/01/16 14:16:25;;;;;;;2.92;1.92;;;21.80;34.90;;;;;;6227982;27;87675;-61
2024/01/16 14:19:27;;;;;;;5.07;2.28;;;21.80;34.90;;;;;;6227893;28;81644;-60
2024/01/16 14:22:27;;;;;;;2.50;1.80;;;21.90;34.60;;;;;;6238510;27;80274;-60
2024/01/16 14:25:28;;;;;;;3.33;1.70;;;21.90;34.60;;;;;;6229043;28;80083;-61
2024/01/16 14:28:28;;;;;;;4.43;2.03;;;22.00;34.70;;;;;;6226987;27;81295;-62
2024/01/16 14:31:29;;;;;;;6.22;2.58;;;22.00;34.70;;;;;;6234055;27;80301;-61
2024/01/16 14:34:29;;;;;;;8.20;2.40;;;22.10;34.40;;;;;;6244774;27;83055;-60
2024/01/16 14:37:30;;;;;;;3.13;1.98;;;22.10;34.90;;;;;;6242140;27;80404;-59
2024/01/16 14:40:31;;;;;;;5.85;2.13;;;22.20;34.90;;;;;;6234309;27;82792;-58
2024/01/16 14:43:31;;;;;;;8.15;2.55;;;22.20;35.10;;;;;;6242232;27;80249;-59
2024/01/16 14:46:33;;;;;;;3.55;2.40;;;22.30;35.10;;;;;;6251233;27;82514;-60
2024/01/16 14:49:34;;;;;;;5.05;2.53;;;22.40;35.10;;;;;;6236550;27;80591;-59
2024/01/16 14:52:34;;;;;;;4.32;2.67;;;22.40;35.10;;;;;;6230658;27;80126;-56
2024/01/16 14:55:35;;;;;;;4.60;2.80;;;22.40;35.30;;;;;;6227325;27;80467;-57
2024/01/16 14:58:35;;;;;;;4.70;2.50;;;22.50;36.10;;;;;;6232588;27;80168;-59
2024/01/16 15:01:36;;;;;;;6.22;2.83;;;22.50;36.00;;;;;;6233038;28;81954;-57
2024/01/16 15:04:37;;;;;;;6.75;2.55;;;22.60;36.30;;;;;;6235996;28;80980;-57
2024/01/16 15:07:38;;;;;;;6.70;2.80;;;22.60;36.50;;;;;;6238267;27;81259;-57
2024/01/16 15:10:38;;;;;;;4.65;2.17;;;22.60;36.80;;;;;;6237190;27;80580;-55
2024/01/16 15:13:39;;;;;;;7.35;2.58;;;22.60;36.80;;;;;;6243763;27;88061;-61
2024/01/16 15:16:39;;;;;;;6.55;2.15;;;22.60;37.00;;;;;;6245564;27;80318;-57
2024/01/16 15:19:40;;;;;;;4.32;2.13;;;22.60;38.00;;;;;;6244642;27;80586;-59
2024/01/16 15:22:40;;;;;;;6.70;3.10;;;22.70;39.10;;;;;;6244458;28;80240;-58
2024/01/16 15:25:41;;;;;;;14.18;3.05;;;22.80;40.10;;;;;;6239564;27;80667;-57
2024/01/16 15:28:41;;;;;;;5.57;2.72;;;22.90;40.30;;;;;;6241763;27;83459;-56
2024/01/16 15:31:42;;;;;;;8.88;2.88;;;22.90;39.50;;;;;;6245251;27;81728;-57
2024/01/16 15:34:42;;;;;;;5.38;2.40;;;22.90;39.20;;;;;;6240945;27;81367;-60
2024/01/16 15:37:44;;;;;;;4.72;2.75;;;22.90;39.20;;;;;;6261460;27;80748;-61
2024/01/16 15:40:44;;;;;;;4.65;2.67;;;22.80;39.30;;;;;;6273024;27;82588;-59